createdAt,value
2022-12-13T00:01:45.248Z,100363.72
2022-12-13T00:04:13.879Z,100376.94
2022-12-13T00:06:41.813Z,100366.47
2022-12-13T00:09:10.640Z,100386.75
2022-12-13T00:11:38.009Z,100385.03
2022-12-13T00:14:05.396Z,100383.31
2022-12-13T00:16:32.862Z,100377.19
2022-12-13T00:19:01.104Z,100381.63
2022-12-13T00:21:33.065Z,100379.06
2022-12-13T00:24:01.389Z,100382.50
2022-12-13T00:26:31.524Z,100384.25
2022-12-13T00:29:01.365Z,100382.63
2022-12-13T00:34:19.737Z,100391.44
2022-12-13T00:36:47.316Z,100373.91
2022-12-13T00:39:16.670Z,100382.66
2022-12-13T00:41:45.115Z,100361.72
2022-12-13T00:44:13.797Z,100367.88
2022-12-13T00:46:42.331Z,100361.59
2022-12-13T00:49:10.970Z,100351.25
2022-12-13T00:51:38.863Z,100364.38
2022-12-13T00:54:06.638Z,100361.78
2022-12-13T00:56:34.092Z,100352.09
2022-12-13T00:59:01.652Z,100364.38
2022-12-13T01:01:32.672Z,100354.78
2022-12-13T01:04:02.381Z,100336.31
2022-12-13T01:06:31.656Z,100359.91
2022-12-13T01:08:59.115Z,100358.91
2022-12-13T01:11:26.580Z,100364.94
2022-12-13T01:13:54.027Z,100372.94
2022-12-13T01:16:21.643Z,100364.22
2022-12-13T01:18:49.039Z,100363.41
2022-12-13T01:21:19.004Z,100366.06
2022-12-13T01:23:46.908Z,100353.84
2022-12-13T01:26:17.037Z,100357.41
2022-12-13T01:28:44.996Z,100352.84
2022-12-13T01:31:15.758Z,100355.59
2022-12-13T01:33:43.251Z,100357.41
2022-12-13T01:36:17.474Z,100346.88
2022-12-13T01:38:45.032Z,100302.28
2022-12-13T01:41:21.016Z,100310.09
2022-12-13T01:44:03.571Z,100325.81
2022-12-13T01:46:36.018Z,100297.75
2022-12-13T01:49:20.486Z,100292.47
2022-12-13T01:52:03.120Z,100309.16
2022-12-13T01:54:34.012Z,100301.41
2022-12-13T01:57:06.613Z,100301.53
2022-12-13T01:59:37.676Z,100284.03
2022-12-13T02:02:07.255Z,100279.66
2022-12-13T02:05:02.065Z,100290.13
2022-12-13T02:07:33.789Z,100284.00
2022-12-13T02:10:05.172Z,100295.44
2022-12-13T02:12:35.313Z,100280.50
2022-12-13T02:15:08.062Z,100286.66
2022-12-13T02:18:00.273Z,100298.94
2022-12-13T02:20:55.220Z,100291.03
2022-12-13T02:23:25.576Z,100285.84
2022-12-13T02:26:30.690Z,100304.19
2022-12-13T02:29:30.356Z,100290.22
2022-12-13T02:32:09.827Z,100294.53
2022-12-13T02:34:45.420Z,100284.91
2022-12-13T02:37:33.151Z,100274.44
2022-12-13T02:40:07.772Z,100282.28
2022-12-13T02:42:41.117Z,100261.28
2022-12-13T02:45:21.252Z,100261.28
2022-12-13T02:47:53.939Z,100266.53
2022-12-13T02:50:23.386Z,100279.72
2022-12-13T02:52:52.305Z,100295.47
2022-12-13T02:55:22.850Z,100282.38
2022-12-13T02:57:53.030Z,100251.72
2022-12-13T03:00:26.973Z,100262.22
2022-12-13T03:03:25.406Z,100270.09
2022-12-13T03:06:44.418Z,100281.41
2022-12-13T03:09:25.429Z,100256.91
2022-12-13T03:12:14.248Z,100263.91
2022-12-13T03:14:54.651Z,100255.13
2022-12-13T03:17:25.440Z,100260.31
2022-12-13T03:19:54.623Z,100278.75
2022-12-13T03:22:22.916Z,100270.84
2022-12-13T03:24:52.792Z,100269.13
2022-12-13T03:27:20.220Z,100255.19
2022-12-13T03:29:47.673Z,100245.56
2022-12-13T03:32:15.064Z,100257.84
2022-12-13T03:34:44.246Z,100254.31
2022-12-13T03:37:13.704Z,100263.97
2022-12-13T03:39:41.116Z,100249.94
2022-12-13T03:42:08.629Z,100257.84
2022-12-13T03:44:35.976Z,100250.84
2022-12-13T03:47:03.420Z,100249.09
2022-12-13T03:49:35.376Z,100247.34
2022-12-13T03:52:03.330Z,100251.72
2022-12-13T03:54:30.693Z,100245.63
2022-12-13T03:56:58.208Z,100242.13
2022-12-13T03:59:25.700Z,100256.16
2022-12-13T04:01:53.233Z,100238.63
2022-12-13T04:04:20.812Z,100247.38
2022-12-13T04:06:48.142Z,100232.53
2022-12-13T04:09:15.769Z,100242.16
2022-12-13T04:12:01.560Z,100243.00
2022-12-13T04:14:28.909Z,100252.63
2022-12-13T04:16:56.329Z,100245.63
2022-12-13T04:19:24.209Z,100249.13
2022-12-13T04:21:54.412Z,100238.66
2022-12-13T04:24:31.197Z,100234.28
2022-12-13T04:27:01.421Z,100224.63
2022-12-13T04:29:33.759Z,100239.50
2022-12-13T04:32:04.433Z,100237.72
2022-12-13T04:34:36.756Z,100237.75
2022-12-13T04:37:05.696Z,100246.53
2022-12-13T04:39:34.122Z,100251.78
2022-12-13T04:42:03.559Z,100246.53
2022-12-13T04:44:36.545Z,100244.75
2022-12-13T04:47:05.389Z,100246.53
2022-12-13T04:49:33.566Z,100261.38
2022-12-13T04:52:02.441Z,100256.09
2022-12-13T04:54:36.036Z,100269.25
2022-12-13T04:57:10.787Z,100250.91
2022-12-13T04:59:38.812Z,100251.78
2022-12-13T05:02:07.586Z,100256.13
2022-12-13T05:04:35.524Z,100231.66
2022-12-13T05:07:03.164Z,100238.66
2022-12-13T05:09:31.461Z,100255.28
2022-12-13T05:12:01.468Z,100244.81
2022-12-13T05:14:32.936Z,100249.19
2022-12-13T05:17:01.572Z,100237.78
2022-12-13T05:19:30.906Z,100239.53
2022-12-13T05:22:02.421Z,100251.78
2022-12-13T05:24:31.779Z,100241.28
2022-12-13T05:27:00.358Z,100241.28
2022-12-13T05:29:28.121Z,100256.16
2022-12-13T05:31:55.616Z,100240.41
2022-12-13T05:34:23.057Z,100246.53
2022-12-13T05:36:50.963Z,100261.44
2022-12-13T05:39:28.383Z,100238.66
2022-12-13T05:42:02.192Z,100256.19
2022-12-13T05:44:31.552Z,100243.00
2022-12-13T05:47:02.055Z,100252.63
2022-12-13T05:49:31.411Z,100239.50
2022-12-13T05:51:59.007Z,100258.78
2022-12-13T05:54:26.432Z,100250.03
2022-12-13T05:56:53.818Z,100269.28
2022-12-13T05:59:22.428Z,100259.66
2022-12-13T06:01:49.792Z,100256.13
2022-12-13T06:04:22.900Z,100266.66
2022-12-13T06:06:52.161Z,100264.03
2022-12-13T06:09:20.391Z,100247.38
2022-12-13T06:11:48.760Z,100245.63
2022-12-13T06:14:22.261Z,100259.66
2022-12-13T06:16:52.134Z,100247.38
2022-12-13T06:19:23.363Z,100254.41
2022-12-13T06:21:53.520Z,100251.81
2022-12-13T06:24:22.876Z,100247.41
2022-12-13T06:26:51.381Z,100250.94
2022-12-13T06:29:23.643Z,100250.06
2022-12-13T06:32:01.065Z,100233.44
2022-12-13T06:34:30.490Z,100254.47
2022-12-13T06:36:57.932Z,100249.19
2022-12-13T06:39:25.559Z,100248.34
2022-12-13T06:42:06.253Z,100251.81
2022-12-13T06:44:35.334Z,100247.47
2022-12-13T06:47:11.066Z,100254.44
2022-12-13T06:49:42.857Z,100250.97
2022-12-13T06:52:13.127Z,100272.84
2022-12-13T06:54:41.754Z,100268.47
2022-12-13T06:57:10.299Z,100260.56
2022-12-13T06:59:37.860Z,100257.94
2022-12-13T07:02:06.580Z,100271.09
2022-12-13T07:04:51.596Z,100266.72
2022-12-13T07:07:18.931Z,100281.59
2022-12-13T07:09:46.485Z,100278.97
2022-12-13T07:12:14.032Z,100271.09
2022-12-13T07:14:41.526Z,100272.84
2022-12-13T07:17:08.910Z,100268.47
2022-12-13T07:19:36.467Z,100261.44
2022-12-13T07:22:05.834Z,100285.09
2022-12-13T07:24:36.240Z,100278.09
2022-12-13T07:27:04.361Z,100275.47
2022-12-13T07:29:31.910Z,100279.00
2022-12-13T07:32:01.631Z,100277.22
2022-12-13T07:34:30.465Z,100280.75
2022-12-13T07:36:58.272Z,100271.97
2022-12-13T07:39:26.274Z,100271.06
2022-12-13T07:41:56.116Z,100283.38
2022-12-13T07:44:24.896Z,100283.34
2022-12-13T07:46:52.600Z,100288.59
2022-12-13T07:49:20.374Z,100284.22
2022-12-13T07:51:49.160Z,100280.72
2022-12-13T07:54:16.636Z,100286.00
2022-12-13T07:56:44.051Z,100285.09
2022-12-13T07:59:13.152Z,100294.75
2022-12-13T08:01:40.592Z,100297.38
2022-12-13T08:04:10.092Z,100293.88
2022-12-13T08:06:38.178Z,100314.03
2022-12-13T08:09:06.270Z,100299.13
2022-12-13T08:11:34.584Z,100303.50
2022-12-13T08:14:02.119Z,100301.75
2022-12-13T08:16:30.551Z,100306.09
2022-12-13T08:19:03.162Z,100307.88
2022-12-13T08:21:53.902Z,100307.00
2022-12-13T08:24:23.912Z,100313.13
2022-12-13T08:26:51.344Z,100307.00
2022-12-13T08:29:22.341Z,100317.47
2022-12-13T08:32:01.238Z,100299.97
2022-12-13T08:34:29.531Z,100324.50
2022-12-13T08:37:02.389Z,100308.69
2022-12-13T08:39:37.525Z,100306.97
2022-12-13T08:42:16.251Z,100312.25
2022-12-13T08:44:52.883Z,100308.75
2022-12-13T08:47:24.051Z,100296.44
2022-12-13T08:49:54.451Z,100316.63
2022-12-13T08:52:23.370Z,100320.09
2022-12-13T08:54:51.179Z,100314.88
2022-12-13T08:57:18.716Z,100329.75
2022-12-13T08:59:46.419Z,100334.13
2022-12-13T09:02:14.961Z,100326.25
2022-12-13T09:04:43.066Z,100344.63
2022-12-13T09:07:10.547Z,100338.50
2022-12-13T09:09:38.055Z,100342.00
2022-12-13T09:12:10.403Z,100337.59
2022-12-13T09:14:45.541Z,100343.75
2022-12-13T09:17:24.069Z,100339.38
2022-12-13T09:19:58.322Z,100341.97
2022-12-13T09:22:33.853Z,100343.75
2022-12-13T09:25:03.306Z,100341.13
2022-12-13T09:27:39.438Z,100344.66
2022-12-13T09:30:10.814Z,100352.53
2022-12-13T09:32:38.462Z,100344.59
2022-12-13T09:35:06.669Z,100352.47
2022-12-13T09:37:34.905Z,100343.72
2022-12-13T09:40:16.103Z,100342.84
2022-12-13T09:43:08.296Z,100350.78
2022-12-13T09:45:44.271Z,100353.38
2022-12-13T09:48:22.292Z,100351.59
2022-12-13T09:51:16.553Z,100359.53
2022-12-13T09:53:40.657Z,100354.25
2022-12-13T09:56:12.096Z,100354.25
2022-12-13T09:58:39.447Z,100360.34
2022-12-13T10:01:06.893Z,100370.94
2022-12-13T10:03:34.735Z,100361.28
2022-12-13T10:06:22.802Z,100371.78
2022-12-13T10:08:50.991Z,100370.91
2022-12-13T10:11:31.708Z,100369.16
2022-12-13T10:14:02.740Z,100368.28
2022-12-13T10:16:37.040Z,100370.03
2022-12-13T10:19:29.596Z,100368.25
2022-12-13T10:22:02.240Z,100364.69
2022-12-13T10:24:49.878Z,100357.66
2022-12-13T10:27:21.405Z,100358.50
2022-12-13T10:30:04.032Z,100352.38
2022-12-13T10:32:37.339Z,100342.78
2022-12-13T10:35:20.841Z,100348.06
2022-12-13T10:37:48.325Z,100348.91
2022-12-13T10:40:34.141Z,100340.13
2022-12-13T10:43:20.571Z,100331.34
2022-12-13T10:45:54.212Z,100330.47
2022-12-13T10:48:42.075Z,100326.13
2022-12-13T10:51:15.475Z,100317.34
2022-12-13T10:53:54.400Z,100313.00
2022-12-13T10:56:32.703Z,100319.03
2022-12-13T10:59:25.043Z,100317.28
2022-12-13T11:01:52.992Z,100308.50
2022-12-13T11:04:32.207Z,100312.91
2022-12-13T11:07:02.250Z,100310.22
2022-12-13T11:09:38.538Z,100286.56
2022-12-13T11:12:21.977Z,100292.69
2022-12-13T11:14:59.673Z,100290.97
2022-12-13T11:17:29.992Z,100288.38
2022-12-13T11:20:02.975Z,100290.97
2022-12-13T11:22:34.336Z,100297.06
2022-12-13T11:25:06.288Z,100284.78
2022-12-13T11:27:59.353Z,100295.25
2022-12-13T11:30:43.751Z,100286.56
2022-12-13T11:33:47.833Z,100276.03
2022-12-13T11:36:18.796Z,100282.97
2022-12-13T11:39:17.389Z,100290.88
2022-12-13T11:41:51.213Z,100276.84
2022-12-13T11:44:34.726Z,100268.09
2022-12-13T11:47:02.380Z,100289.16
2022-12-13T11:49:40.347Z,100283.84
2022-12-13T11:52:25.746Z,100274.22
2022-12-13T11:55:11.321Z,100281.25
2022-12-13T11:57:47.175Z,100268.00
2022-12-13T12:00:33.632Z,100254.75
2022-12-13T12:03:16.673Z,100260.09
2022-12-13T12:06:08.976Z,100267.06
2022-12-13T12:08:48.171Z,100268.78
2022-12-13T12:11:18.642Z,100267.00
2022-12-13T12:13:52.731Z,100249.56
2022-12-13T12:16:42.090Z,100254.75
2022-12-13T12:19:22.397Z,100256.56
2022-12-13T12:22:15.403Z,100252.09
2022-12-13T12:24:57.478Z,100248.59
2022-12-13T12:27:43.596Z,100246.88
2022-12-13T12:30:22.871Z,100252.13
2022-12-13T12:33:31.164Z,100244.13
2022-12-13T12:36:10.980Z,100245.88
2022-12-13T12:39:02.864Z,100234.47
2022-12-13T12:41:33.152Z,100235.41
2022-12-13T12:44:38.111Z,100235.34
2022-12-13T12:47:56.464Z,100230.06
2022-12-13T12:50:42.893Z,100228.34
2022-12-13T12:53:41.718Z,100211.72
2022-12-13T12:56:47.292Z,100222.22
2022-12-13T12:59:34.781Z,100217.00
2022-12-13T13:02:10.907Z,100208.22
2022-12-13T13:04:45.270Z,100219.50
2022-12-13T13:07:24.117Z,100223.94
2022-12-13T13:09:54.600Z,100220.34
2022-12-13T13:12:29.011Z,100217.78
2022-12-13T13:14:58.106Z,100233.66
2022-12-13T13:17:25.446Z,100227.44
2022-12-13T13:20:23.419Z,100229.09
2022-12-13T13:23:40.051Z,100222.00
2022-12-13T13:26:24.323Z,100235.16
2022-12-13T13:28:47.858Z,100242.19
2022-12-13T13:31:16.086Z,100221.13
2022-12-13T13:33:46.784Z,100241.34
2022-12-13T13:36:39.454Z,100240.41
2022-12-13T13:39:16.548Z,100252.75
2022-12-13T13:41:55.794Z,100247.59
2022-12-13T13:44:45.035Z,100242.19
2022-12-13T13:47:22.374Z,100238.69
2022-12-13T13:50:07.802Z,100237.84
2022-12-13T13:52:44.510Z,100242.22
2022-12-13T13:55:45.956Z,100238.72
2022-12-13T13:58:31.926Z,100237.75
2022-12-13T14:01:01.941Z,100239.50
2022-12-13T14:03:42.376Z,100244.81
2022-12-13T14:06:37.319Z,100244.84
2022-12-13T14:09:07.748Z,100236.00
2022-12-13T14:12:11.130Z,100243.94
2022-12-13T14:15:16.179Z,100245.72
2022-12-13T14:18:21.209Z,100244.00
2022-12-13T14:21:11.048Z,100243.16
2022-12-13T14:23:40.989Z,100230.88
2022-12-13T14:26:51.543Z,100227.38
2022-12-13T14:29:27.179Z,100226.53
2022-12-13T14:31:55.730Z,100208.13
2022-12-13T14:34:27.405Z,100216.81
2022-12-13T14:37:15.053Z,100218.44
2022-12-13T14:39:45.303Z,100205.34
2022-12-13T14:42:24.377Z,100214.16
2022-12-13T14:44:53.290Z,100218.53
2022-12-13T14:47:22.061Z,100223.78
2022-12-13T14:49:55.084Z,100204.50
2022-12-13T14:52:27.033Z,100194.13
2022-12-13T14:54:58.694Z,100214.22
2022-12-13T14:57:32.060Z,100203.72
2022-12-13T15:00:01.473Z,100213.25
2022-12-13T15:02:33.825Z,100215.16
2022-12-13T15:05:04.720Z,100220.34
2022-12-13T15:07:40.083Z,100229.94
2022-12-13T15:10:30.069Z,100222.91
2022-12-13T15:12:57.488Z,100228.25
2022-12-13T15:15:29.770Z,100222.91
2022-12-13T15:18:20.306Z,100229.91
2022-12-13T15:21:28.581Z,100229.94
2022-12-13T15:24:00.133Z,100238.72
2022-12-13T15:26:34.379Z,100237.91
2022-12-13T15:29:10.428Z,100237.84
2022-12-13T15:31:40.192Z,100243.19
2022-12-13T15:34:30.561Z,100252.81
2022-12-13T15:37:01.674Z,100256.38
2022-12-13T15:39:31.248Z,100246.78
2022-12-13T15:42:02.146Z,100255.59
2022-12-13T15:44:37.519Z,100250.25
2022-12-13T15:47:11.379Z,100252.00
2022-12-13T15:49:50.417Z,100254.66
2022-12-13T15:52:20.950Z,100248.47
2022-12-13T15:55:09.321Z,100248.44
2022-12-13T15:57:51.324Z,100248.47
2022-12-13T16:00:31.025Z,100255.41
2022-12-13T16:03:19.224Z,100256.38
2022-12-13T16:05:52.915Z,100257.31
2022-12-13T16:08:30.870Z,100256.38
2022-12-13T16:10:59.220Z,100259.03
2022-12-13T16:13:36.837Z,100252.88
2022-12-13T16:16:27.573Z,100258.22
2022-12-13T16:19:00.633Z,100258.16
2022-12-13T16:21:29.028Z,100252.94
2022-12-13T16:23:56.381Z,100251.13
2022-12-13T16:26:26.878Z,100253.72
2022-12-13T16:28:56.932Z,100253.66
2022-12-13T16:31:27.661Z,100255.53
2022-12-13T16:33:54.979Z,100245.84
2022-12-13T16:36:22.320Z,100238.78
2022-12-13T16:38:49.720Z,100232.66
2022-12-13T16:41:17.248Z,100238.81
2022-12-13T16:43:56.283Z,100245.84
2022-12-13T16:47:14.343Z,100250.28
2022-12-13T16:49:38.473Z,100237.06
2022-12-13T16:52:07.695Z,100241.47
2022-12-13T16:54:35.574Z,100252.91
2022-12-13T16:57:02.953Z,100245.91
2022-12-13T16:59:30.366Z,100244.13
2022-12-13T17:01:57.908Z,100245.84
2022-12-13T17:04:27.508Z,100242.34
2022-12-13T17:06:55.613Z,100244.09
2022-12-13T17:09:25.150Z,100250.22
2022-12-13T17:11:52.709Z,100244.13
2022-12-13T17:14:20.108Z,100245.88
2022-12-13T17:16:47.994Z,100253.00
2022-12-13T17:19:15.715Z,100250.34
2022-12-13T17:21:43.294Z,100251.25
2022-12-13T17:24:10.628Z,100252.13
2022-12-13T17:26:37.943Z,100254.72
2022-12-13T17:29:05.520Z,100253.88
2022-12-13T17:31:36.173Z,100253.84
2022-12-13T17:34:04.647Z,100253.88
2022-12-13T17:36:32.289Z,100247.72
2022-12-13T17:38:59.705Z,100247.84
2022-12-13T17:41:27.089Z,100242.50
2022-12-13T17:43:58.557Z,100242.59
2022-12-13T17:46:26.057Z,100240.78
2022-12-13T17:48:53.444Z,100239.03
2022-12-13T17:51:20.828Z,100241.63
2022-12-13T17:53:48.208Z,100239.03
2022-12-13T17:56:16.338Z,100234.63
2022-12-13T17:58:44.188Z,100234.63
2022-12-13T18:01:12.601Z,100232.00
2022-12-13T18:03:40.476Z,100230.25
2022-12-13T18:06:07.940Z,100228.56
2022-12-13T18:08:37.291Z,100215.38
2022-12-13T18:13:55.274Z,100214.44
2022-12-13T18:16:30.314Z,100203.06
2022-12-13T18:19:01.695Z,100209.25
2022-12-13T18:21:29.285Z,100206.63
2022-12-13T18:23:56.754Z,100218.00
2022-12-13T18:26:24.812Z,100221.50
2022-12-13T18:28:52.543Z,100213.53
2022-12-13T18:31:23.230Z,100201.25
2022-12-13T18:33:52.850Z,100216.13
2022-12-13T18:36:22.684Z,100212.66
2022-12-13T18:38:50.562Z,100216.16
2022-12-13T18:41:24.313Z,100219.69
2022-12-13T18:44:00.263Z,100214.41
2022-12-13T18:46:32.775Z,100217.03
2022-12-13T18:49:00.768Z,100207.41
2022-12-13T18:51:28.636Z,100209.25
2022-12-13T18:53:56.282Z,100225.03
2022-12-13T18:56:24.688Z,100227.78
2022-12-13T18:58:52.644Z,100212.81
2022-12-13T19:01:20.621Z,100228.50
2022-12-13T19:03:48.937Z,100219.72
2022-12-13T19:06:25.251Z,100225.84
2022-12-13T19:08:56.317Z,100212.78
2022-12-13T19:11:25.959Z,100220.63
2022-12-13T19:13:53.778Z,100218.91
2022-12-13T19:16:22.754Z,100216.25
2022-12-13T19:18:50.442Z,100229.38
2022-12-13T19:21:20.676Z,100215.31
2022-12-13T19:23:55.821Z,100210.94
2022-12-13T19:26:24.479Z,100207.41
2022-12-13T19:28:51.901Z,100214.44
2022-12-13T19:31:19.377Z,100207.47
2022-12-13T19:33:47.715Z,100211.03
2022-12-13T19:36:15.662Z,100213.59
2022-12-13T19:38:43.033Z,100209.22
2022-12-13T19:41:15.195Z,100224.13
2022-12-13T19:43:50.689Z,100226.69
2022-12-13T19:46:20.473Z,100236.38
2022-12-13T19:48:48.430Z,100228.53
2022-12-13T19:51:16.092Z,100236.44
2022-12-13T19:53:43.591Z,100226.78
2022-12-13T19:56:13.478Z,100235.56
2022-12-13T19:58:40.944Z,100233.81
2022-12-13T20:01:09.168Z,100229.47
2022-12-13T20:03:41.923Z,100229.47
2022-12-13T20:06:12.131Z,100222.53
2022-12-13T20:08:39.709Z,100218.19
2022-12-13T20:11:10.278Z,100219.03
2022-12-13T20:13:37.872Z,100218.13
2022-12-13T20:16:05.995Z,100220.75
2022-12-13T20:18:34.018Z,100215.44
2022-12-13T20:21:12.882Z,100214.63
2022-12-13T20:23:49.439Z,100216.31
2022-12-13T20:26:21.239Z,100228.63
2022-12-13T20:28:50.147Z,100225.13
2022-12-13T20:31:38.724Z,100233.13
2022-12-13T20:34:10.135Z,100233.13
2022-12-13T20:36:37.567Z,100232.28
2022-12-13T20:39:07.235Z,100229.59
2022-12-13T20:41:36.276Z,100235.72
2022-12-13T20:44:06.126Z,100227.81
2022-12-13T20:46:34.182Z,100226.81
2022-12-13T20:49:03.916Z,100221.53
2022-12-13T20:51:32.701Z,100229.53
2022-12-13T20:54:00.028Z,100234.75
2022-12-13T20:56:34.985Z,100238.31
2022-12-13T20:59:04.450Z,100238.25
2022-12-13T21:01:35.649Z,100238.28
2022-12-13T21:04:06.155Z,100233.91
2022-12-13T21:06:36.499Z,100232.91
2022-12-13T21:09:05.139Z,100228.53
2022-12-13T21:11:41.536Z,100231.13
2022-12-13T21:14:16.959Z,100236.41
2022-12-13T21:17:00.742Z,100237.31
2022-12-13T21:19:37.582Z,100222.53
2022-12-13T21:22:07.242Z,100213.75
2022-12-13T21:24:34.743Z,100217.22
2022-12-13T21:27:02.130Z,100226.00
2022-12-13T21:29:29.508Z,100217.19
2022-12-13T21:31:57.085Z,100217.22
2022-12-13T21:34:24.837Z,100220.72
2022-12-13T21:36:52.759Z,100211.06
2022-12-13T21:39:22.681Z,100222.44
2022-12-13T21:41:50.847Z,100209.34
2022-12-13T21:44:18.577Z,100238.22
2022-12-13T21:49:34.245Z,100208.53
2022-12-13T21:52:01.693Z,100200.72
2022-12-13T21:54:29.069Z,100209.44
2022-12-13T21:57:14.989Z,100211.19
2022-12-13T21:59:42.307Z,100200.69
2022-12-13T22:02:18.691Z,100206.84
2022-12-13T22:04:57.712Z,100226.91
2022-12-13T22:07:33.050Z,100228.63
2022-12-13T22:10:01.629Z,100221.56
2022-12-13T22:12:37.194Z,100225.97
2022-12-13T22:15:08.408Z,100221.66
2022-12-13T22:17:37.058Z,100222.50
2022-12-13T22:20:13.747Z,100220.78
2022-12-13T22:22:44.041Z,100229.59
2022-12-13T22:25:12.202Z,100224.25
2022-12-13T22:27:39.596Z,100219.91
2022-12-13T22:30:07.762Z,100215.53
2022-12-13T22:32:35.134Z,100231.28
2022-12-13T22:35:02.757Z,100230.38
2022-12-13T22:37:30.600Z,100226.84
2022-12-13T22:39:58.009Z,100225.03
2022-12-13T22:42:25.512Z,100225.09
2022-12-13T22:44:52.891Z,100224.22
2022-12-13T22:47:20.256Z,100221.66
2022-12-13T22:49:49.063Z,100210.25
2022-12-13T22:52:17.395Z,100208.44
2022-12-13T22:54:44.848Z,100204.97
2022-12-13T22:57:12.256Z,100206.81
2022-12-13T22:59:39.914Z,100191.91
2022-12-13T23:02:07.781Z,100186.66
2022-12-13T23:04:35.346Z,100185.75
2022-12-13T23:07:02.855Z,100183.06
2022-12-13T23:09:31.140Z,100172.56
2022-12-13T23:12:17.116Z,100176.97
2022-12-13T23:14:44.606Z,100167.31
2022-12-13T23:17:12.035Z,100164.69
2022-12-13T23:19:50.097Z,100153.22
2022-12-13T23:22:23.565Z,100150.66
2022-12-13T23:24:52.177Z,100153.31
2022-12-13T23:27:21.589Z,100146.28
2022-12-13T23:29:49.942Z,100141.91
2022-12-13T23:32:17.566Z,100133.13
2022-12-13T23:34:44.933Z,100127.84
2022-12-13T23:37:12.312Z,100121.66
2022-12-13T23:39:39.633Z,100115.53
2022-12-13T23:42:07.276Z,100120.88
2022-12-13T23:44:34.674Z,100120.78
2022-12-13T23:47:02.058Z,100114.63
2022-12-13T23:49:29.503Z,100099.75
2022-12-13T23:51:56.866Z,100104.97
2022-12-13T23:54:24.372Z,100112.00
2022-12-13T23:56:51.701Z,100105.78
2022-12-13T23:59:19.089Z,100095.28
